createdAt,value
2018-07-04T00:02:06.167Z,18.90
2018-07-04T00:04:46.628Z,18.90
2018-07-04T00:07:27.176Z,18.90
2018-07-04T00:10:09.016Z,18.90
2018-07-04T00:12:51.455Z,18.90
2018-07-04T00:15:31.773Z,18.90
2018-07-04T00:18:12.470Z,19.10
2018-07-04T00:20:53.289Z,19.10
2018-07-04T06:28:37.386Z,20.70
2018-07-04T06:31:18.800Z,21.40
2018-07-04T06:33:59.336Z,21.50
2018-07-04T06:36:39.986Z,21.60
2018-07-04T06:39:08.596Z,21.80
2018-07-04T06:41:37.076Z,22.00
2018-07-04T06:44:07.431Z,22.10
2018-07-04T06:46:37.567Z,22.20
2018-07-04T06:49:06.259Z,22.20
2018-07-04T06:51:35.026Z,22.20
2018-07-04T06:54:05.941Z,22.30
2018-07-04T06:56:34.456Z,22.40
2018-07-04T06:59:02.807Z,22.40
2018-07-04T07:01:33.481Z,22.50
2018-07-04T07:04:14.073Z,22.50
2018-07-04T07:06:54.817Z,22.50
2018-07-04T07:09:35.401Z,22.60
2018-07-04T07:12:17.102Z,22.60
2018-07-04T07:14:59.063Z,22.70
2018-07-04T07:17:39.664Z,22.70
2018-07-04T07:20:21.683Z,22.70
2018-07-04T07:23:05.404Z,22.70
2018-07-04T07:25:46.756Z,22.70
2018-07-04T07:28:27.394Z,22.70
2018-07-04T07:31:08.294Z,22.70
2018-07-04T07:33:49.384Z,22.70
2018-07-04T07:36:30.624Z,22.70
2018-07-04T07:39:12.363Z,22.70
2018-07-04T07:41:53.311Z,22.80
2018-07-04T07:44:34.012Z,22.80
2018-07-04T07:47:14.674Z,22.80
2018-07-04T07:49:55.295Z,22.80
2018-07-04T07:55:12.515Z,22.90
2018-07-04T07:57:54.745Z,23.00
2018-07-04T08:00:37.403Z,23.10
2018-07-04T08:03:17.917Z,23.10
2018-07-04T08:05:59.732Z,23.20
2018-07-04T08:08:40.331Z,23.20
2018-07-04T08:11:20.849Z,23.20
2018-07-04T08:14:02.683Z,23.20
2018-07-04T08:16:44.540Z,23.20
2018-07-04T08:19:24.951Z,23.20
2018-07-04T08:22:05.268Z,23.30
2018-07-04T08:24:45.596Z,23.30
2018-07-04T08:27:25.928Z,23.30
2018-07-04T08:30:06.332Z,23.30
2018-07-04T08:32:46.699Z,23.40
2018-07-04T08:35:27.120Z,23.40
2018-07-04T08:38:07.548Z,23.50
2018-07-04T08:40:48.189Z,23.50
2018-07-04T08:43:28.564Z,23.50
2018-07-04T08:46:09.143Z,23.50
2018-07-04T08:48:49.752Z,23.50
2018-07-04T08:51:30.224Z,23.50
2018-07-04T08:54:10.856Z,23.70
2018-07-04T08:56:52.705Z,23.90
2018-07-04T08:59:33.423Z,24.00
2018-07-04T09:02:14.006Z,24.20
2018-07-04T09:04:55.874Z,24.40
2018-07-04T09:07:36.332Z,24.50
2018-07-04T09:10:16.849Z,24.70
2018-07-04T09:12:57.305Z,24.90
2018-07-04T09:15:37.821Z,25.10
2018-07-04T09:18:18.426Z,25.30
2018-07-04T09:20:58.944Z,25.50
2018-07-04T09:23:39.435Z,25.60
2018-07-04T09:26:19.915Z,25.80
2018-07-04T09:29:01.949Z,25.90
2018-07-04T09:31:42.398Z,26.00
2018-07-04T09:34:22.744Z,26.00
2018-07-04T09:37:03.349Z,26.10
2018-07-04T09:39:44.032Z,26.20
2018-07-04T09:42:24.552Z,26.30
2018-07-04T09:45:05.082Z,26.30
2018-07-04T09:47:45.596Z,26.30
2018-07-04T09:50:26.269Z,26.30
2018-07-04T09:53:06.658Z,26.20
2018-07-04T09:55:47.203Z,26.10
2018-07-04T09:58:27.599Z,26.20
2018-07-04T10:01:13.334Z,26.30
2018-07-04T10:03:53.927Z,26.60
2018-07-04T10:06:34.585Z,27.00
2018-07-04T10:09:15.352Z,27.20
2018-07-04T10:11:56.113Z,27.40
2018-07-04T10:14:36.712Z,27.70
2018-07-04T10:17:17.057Z,27.80
2018-07-04T10:19:57.763Z,27.90
2018-07-04T10:22:38.488Z,28.00
2018-07-04T10:25:19.068Z,28.20
2018-07-04T10:28:06.265Z,28.30
2018-07-04T10:30:46.699Z,28.40
2018-07-04T10:33:27.335Z,28.40
2018-07-04T10:36:08.057Z,28.40
2018-07-04T10:38:48.759Z,28.30
2018-07-04T10:41:29.688Z,28.20
2018-07-04T10:44:10.504Z,28.10
2018-07-04T10:46:50.811Z,28.00
2018-07-04T10:49:31.348Z,28.10
2018-07-04T10:52:11.849Z,28.20
2018-07-04T10:54:52.743Z,28.30
2018-07-04T10:57:33.339Z,28.30
2018-07-04T11:00:13.938Z,28.20
2018-07-04T11:02:54.504Z,28.30
2018-07-04T11:05:34.974Z,28.30
2018-07-04T11:08:15.514Z,28.40
2018-07-04T11:10:56.496Z,28.40
2018-07-04T11:13:37.316Z,28.50
2018-07-04T11:16:18.160Z,28.70
2018-07-04T11:18:58.626Z,28.80
2018-07-04T11:21:40.666Z,28.80
2018-07-04T11:24:21.211Z,28.90
2018-07-04T11:27:03.311Z,29.00
2018-07-04T11:29:43.853Z,29.10
2018-07-04T11:32:24.608Z,29.10
2018-07-04T11:35:05.127Z,29.00
2018-07-04T11:37:45.802Z,29.00
2018-07-04T11:40:26.493Z,29.00
2018-07-04T11:43:07.228Z,29.00
2018-07-04T11:45:47.685Z,29.00
2018-07-04T11:51:02.577Z,29.20
2018-07-04T11:53:40.932Z,29.20
2018-07-04T11:56:19.255Z,29.20
2018-07-04T11:58:57.684Z,29.20
2018-07-04T12:01:35.490Z,29.30
2018-07-04T12:04:15.944Z,29.40
2018-07-04T12:06:56.476Z,29.30
2018-07-04T12:09:35.557Z,29.30
2018-07-04T12:12:14.127Z,29.30
2018-07-04T12:14:52.243Z,29.10
2018-07-04T12:17:28.640Z,29.00
2018-07-04T12:20:07.880Z,29.10
2018-07-04T12:22:44.653Z,29.20
2018-07-04T12:25:19.097Z,29.20
2018-07-04T12:27:47.837Z,29.20
2018-07-04T12:30:24.082Z,29.30
2018-07-04T12:33:00.788Z,29.30
2018-07-04T12:35:39.742Z,29.30
2018-07-04T12:38:17.963Z,29.20
2018-07-04T12:40:56.385Z,29.20
2018-07-04T12:43:32.673Z,29.20
2018-07-04T12:46:11.076Z,29.30
2018-07-04T12:48:48.240Z,29.30
2018-07-04T12:51:28.013Z,29.40
2018-07-04T12:54:10.143Z,29.40
2018-07-04T12:56:50.495Z,29.40
2018-07-04T12:59:30.886Z,29.30
2018-07-04T13:02:11.386Z,29.10
2018-07-04T13:04:53.444Z,29.10
2018-07-04T13:07:34.040Z,29.00
2018-07-04T13:10:14.466Z,29.00
2018-07-04T13:12:54.946Z,29.00
2018-07-04T13:15:35.460Z,29.00
2018-07-04T13:18:16.285Z,29.10
2018-07-04T13:20:56.806Z,29.00
2018-07-04T13:23:49.263Z,29.00
2018-07-04T13:26:33.896Z,29.10
2018-07-04T13:29:26.609Z,29.10
2018-07-04T13:32:08.231Z,29.10
2018-07-04T13:35:04.778Z,28.90
2018-07-04T13:50:06.424Z,28.80
2018-07-04T13:52:47.145Z,28.60
2018-07-04T13:55:28.284Z,28.50
2018-07-04T13:58:09.032Z,28.40
2018-07-04T14:00:50.312Z,28.20
2018-07-04T14:03:31.109Z,28.10
2018-07-04T14:06:12.796Z,28.00
2018-07-04T14:08:55.606Z,28.10
2018-07-04T14:11:39.001Z,28.20
2018-07-04T14:14:21.151Z,28.40
2018-07-04T14:17:03.110Z,28.50
2018-07-04T14:19:47.650Z,28.60
2018-07-04T14:22:35.767Z,28.60
2018-07-04T14:25:24.089Z,28.70
2018-07-04T14:28:05.836Z,28.60
2018-07-04T14:30:47.605Z,28.50
2018-07-04T14:33:28.676Z,28.50
2018-07-04T14:36:10.593Z,28.30
2018-07-04T14:38:51.161Z,28.10
2018-07-04T14:41:31.740Z,28.00
2018-07-04T14:44:13.850Z,27.80
2018-07-04T14:46:56.311Z,27.70
2018-07-04T14:49:38.525Z,27.60
2018-07-04T14:52:22.968Z,27.50
2018-07-04T14:55:06.852Z,27.40
2018-07-04T14:57:54.533Z,27.30
2018-07-04T15:00:38.673Z,27.30
2018-07-04T15:03:20.292Z,27.50
2018-07-04T15:06:02.027Z,27.60
2018-07-04T15:11:56.604Z,27.80
2018-07-04T15:14:37.359Z,27.80
2018-07-04T15:17:20.057Z,27.80
2018-07-04T15:20:01.919Z,27.70
2018-07-04T15:22:42.573Z,27.40
2018-07-04T15:25:23.335Z,27.20
2018-07-04T15:28:03.732Z,27.00
2018-07-04T15:30:44.474Z,26.80
2018-07-04T15:33:24.941Z,26.70
2018-07-04T15:36:05.705Z,26.60
2018-07-04T15:38:46.318Z,26.60
2018-07-04T15:41:27.064Z,26.60
2018-07-04T15:44:07.468Z,26.50
2018-07-04T15:46:48.172Z,26.40
2018-07-04T15:49:28.769Z,26.40
2018-07-04T15:52:09.269Z,26.30
2018-07-04T15:54:49.798Z,26.30
2018-07-04T15:57:30.166Z,26.30
2018-07-04T16:00:10.507Z,26.20
2018-07-04T16:02:50.890Z,26.10
2018-07-04T16:05:31.136Z,26.00
2018-07-04T16:08:12.816Z,26.00
2018-07-04T16:10:53.305Z,25.90
2018-07-04T16:13:33.834Z,25.90
2018-07-04T16:16:14.351Z,25.90
2018-07-04T16:18:54.812Z,25.80
2018-07-04T16:21:35.290Z,25.80
2018-07-04T16:24:15.953Z,25.80
2018-07-04T16:26:57.922Z,25.80
2018-07-04T16:29:40.113Z,25.70
2018-07-04T16:35:03.914Z,25.70
2018-07-04T16:37:44.613Z,25.70
2018-07-04T16:40:26.383Z,25.60
2018-07-04T16:43:08.534Z,25.40
2018-07-04T16:45:50.434Z,25.30
2018-07-04T16:48:31.063Z,25.20
2018-07-04T16:51:12.976Z,25.10
2018-07-04T16:56:28.853Z,24.90
2018-07-04T16:59:09.568Z,24.80
2018-07-04T17:01:51.238Z,24.70
2018-07-04T17:04:33.027Z,24.70
2018-07-04T17:07:13.857Z,24.60
2018-07-04T17:09:54.782Z,24.50
2018-07-04T17:12:36.577Z,24.50
2018-07-04T17:15:18.607Z,24.40
2018-07-04T17:17:59.216Z,24.40
2018-07-04T17:20:39.997Z,24.30
2018-07-04T17:23:21.986Z,24.30
2018-07-04T17:26:03.997Z,24.30
2018-07-04T17:28:45.783Z,24.20
2018-07-04T17:31:27.830Z,24.20
2018-07-04T17:34:08.387Z,24.20
2018-07-04T17:36:48.938Z,24.20
2018-07-04T17:39:30.804Z,24.10
2018-07-04T17:42:11.346Z,24.20
2018-07-04T17:44:53.378Z,24.00
2018-07-04T17:47:35.578Z,23.80
2018-07-04T17:50:16.819Z,23.70
2018-07-04T17:52:57.371Z,23.60
2018-07-04T17:55:38.143Z,23.50
2018-07-04T17:58:19.214Z,23.40
2018-07-04T18:00:59.654Z,23.30
2018-07-04T18:03:40.798Z,23.20
2018-07-04T18:06:21.370Z,23.10
2018-07-04T18:09:02.052Z,23.00
2018-07-04T18:11:43.992Z,23.00
2018-07-04T18:14:24.824Z,23.00
2018-07-04T18:17:05.376Z,23.00
2018-07-04T18:19:45.870Z,22.90
2018-07-04T18:22:26.659Z,22.80
2018-07-04T18:25:07.356Z,22.70
2018-07-04T18:27:48.011Z,22.70
2018-07-04T18:30:28.580Z,22.60
2018-07-04T18:33:09.235Z,22.50
2018-07-04T18:35:49.884Z,22.40
2018-07-04T18:38:31.773Z,22.40
2018-07-04T18:41:12.457Z,22.40
2018-07-04T18:43:58.075Z,22.30
2018-07-04T18:46:38.698Z,22.30
2018-07-04T18:49:19.274Z,22.40
2018-07-04T18:51:59.743Z,22.30
2018-07-04T18:54:40.428Z,22.20
2018-07-04T18:57:21.632Z,22.10
2018-07-04T19:00:04.698Z,22.10
2018-07-04T19:02:48.917Z,22.20
2018-07-04T19:05:30.999Z,22.10
2018-07-04T19:08:11.465Z,22.20
2018-07-04T19:10:52.014Z,22.00
2018-07-04T19:13:32.933Z,21.90
2018-07-04T19:16:13.721Z,21.80
2018-07-04T19:21:33.513Z,21.60
2018-07-04T19:24:14.052Z,21.60
2018-07-04T19:26:55.309Z,21.50
2018-07-04T19:29:36.168Z,21.50
2018-07-04T19:32:16.692Z,21.40
2018-07-04T19:34:57.512Z,21.40
2018-07-04T19:37:37.960Z,21.40
2018-07-04T19:40:18.462Z,21.30
2018-07-04T19:42:59.049Z,21.20
2018-07-04T19:45:40.899Z,21.20
2018-07-04T20:01:18.635Z,21.10
2018-07-04T20:06:51.703Z,21.00
2018-07-04T20:09:39.953Z,21.10
2018-07-04T20:12:21.815Z,21.00
2018-07-04T20:15:03.924Z,21.00
2018-07-04T20:17:44.873Z,21.00
2018-07-04T20:20:26.856Z,20.90
2018-07-04T20:23:07.401Z,21.00
2018-07-04T20:25:49.429Z,20.90
2018-07-04T20:28:31.617Z,20.90
2018-07-04T20:31:12.337Z,20.80
2018-07-04T20:33:53.066Z,20.80
2018-07-04T20:36:33.831Z,20.90
2018-07-04T20:39:14.271Z,20.90
2018-07-04T20:41:56.331Z,20.90
2018-07-04T20:44:39.071Z,20.80
2018-07-04T20:47:19.816Z,20.70
2018-07-04T20:50:00.434Z,20.70
2018-07-04T20:52:42.320Z,20.70
2018-07-04T20:55:24.494Z,20.70
2018-07-04T20:58:06.449Z,20.60
2018-07-04T21:00:46.910Z,20.60
2018-07-04T21:03:27.770Z,20.50
2018-07-04T21:06:09.700Z,20.50
2018-07-04T21:11:54.390Z,20.50
2018-07-04T21:14:35.950Z,20.50
2018-07-04T21:17:17.892Z,20.50
2018-07-04T21:22:48.025Z,20.50
2018-07-04T21:25:29.311Z,20.40
2018-07-04T21:28:11.451Z,20.40
2018-07-04T21:30:56.630Z,20.40
2018-07-04T21:33:37.660Z,20.40
2018-07-04T21:36:36.181Z,20.30
2018-07-04T21:39:35.600Z,20.30
2018-07-04T21:45:09.431Z,20.30
2018-07-04T21:47:55.081Z,20.20
2018-07-04T21:50:37.761Z,20.30
2018-07-04T21:53:21.422Z,20.20
2018-07-04T21:56:04.681Z,20.20
2018-07-04T21:58:45.511Z,20.10
2018-07-04T22:01:26.882Z,20.10
2018-07-04T22:04:08.639Z,20.10
2018-07-04T22:06:50.911Z,20.10
2018-07-04T22:09:31.673Z,20.10
2018-07-04T22:12:18.511Z,20.10
2018-07-04T22:15:01.982Z,20.10
2018-07-04T22:17:43.335Z,20.10
2018-07-04T22:20:26.660Z,20.20
2018-07-04T22:23:10.391Z,20.10
2018-07-04T22:25:52.252Z,20.00
2018-07-04T22:28:34.193Z,19.90
2018-07-04T22:31:16.785Z,20.00
2018-07-04T22:34:00.126Z,20.00
2018-07-04T22:36:40.798Z,20.00
2018-07-04T22:39:21.388Z,19.90
2018-07-04T22:42:02.003Z,20.00
2018-07-04T22:44:43.893Z,20.00
2018-07-04T22:47:27.210Z,20.00
2018-07-04T22:50:09.345Z,19.90
2018-07-04T22:52:51.366Z,20.00
2018-07-04T22:55:31.875Z,19.90
2018-07-04T22:58:12.658Z,19.80
2018-07-04T23:00:53.187Z,19.80
2018-07-04T23:03:35.735Z,19.70
2018-07-04T23:06:16.290Z,19.80
2018-07-04T23:08:58.069Z,19.80
2018-07-04T23:11:39.731Z,19.70
2018-07-04T23:14:21.640Z,19.70
2018-07-04T23:17:03.688Z,19.70
2018-07-04T23:19:44.046Z,19.80
2018-07-04T23:22:24.677Z,19.70
2018-07-04T23:25:06.427Z,19.70
2018-07-04T23:27:46.922Z,19.70
2018-07-04T23:30:28.438Z,19.70
2018-07-04T23:33:10.329Z,19.70
2018-07-04T23:35:51.208Z,19.70
2018-07-04T23:38:33.208Z,19.70
2018-07-04T23:41:15.098Z,19.70
2018-07-04T23:43:57.218Z,19.70
2018-07-04T23:46:37.561Z,19.70
2018-07-04T23:49:17.931Z,19.70
2018-07-04T23:51:59.899Z,19.60
2018-07-04T23:54:40.507Z,19.70
